sensor_id;sensor_type;location;lat;lon;timestamp;P1;durP1;ratioP1;P2;durP2;ratioP2
85668;SDS011;76101;44.794;10.344;2024-03-25T00:06:16;8.20;;;3.17;;
85668;SDS011;76101;44.794;10.344;2024-03-25T00:09:20;8.57;;;3.15;;
85668;SDS011;76101;44.794;10.344;2024-03-25T00:12:20;7.72;;;3.00;;
85668;SDS011;76101;44.794;10.344;2024-03-25T00:15:21;7.50;;;3.10;;
85668;SDS011;76101;44.794;10.344;2024-03-25T00:18:24;7.38;;;3.30;;
85668;SDS011;76101;44.794;10.344;2024-03-25T00:21:25;9.23;;;3.17;;
85668;SDS011;76101;44.794;10.344;2024-03-25T00:24:25;8.67;;;3.50;;
85668;SDS011;76101;44.794;10.344;2024-03-25T00:27:30;6.80;;;3.05;;
85668;SDS011;76101;44.794;10.344;2024-03-25T00:30:30;6.80;;;3.22;;
85668;SDS011;76101;44.794;10.344;2024-03-25T00:33:30;7.93;;;3.53;;
85668;SDS011;76101;44.794;10.344;2024-03-25T00:36:32;7.78;;;3.33;;
85668;SDS011;76101;44.794;10.344;2024-03-25T00:39:33;8.43;;;3.40;;
85668;SDS011;76101;44.794;10.344;2024-03-25T00:42:34;7.72;;;3.35;;
85668;SDS011;76101;44.794;10.344;2024-03-25T00:45:35;5.90;;;2.87;;
85668;SDS011;76101;44.794;10.344;2024-03-25T00:48:35;6.77;;;2.90;;
85668;SDS011;76101;44.794;10.344;2024-03-25T00:51:37;8.18;;;3.08;;
85668;SDS011;76101;44.794;10.344;2024-03-25T00:54:38;7.68;;;2.95;;
85668;SDS011;76101;44.794;10.344;2024-03-25T00:57:38;6.17;;;2.63;;
85668;SDS011;76101;44.794;10.344;2024-03-25T01:00:38;6.00;;;2.57;;
85668;SDS011;76101;44.794;10.344;2024-03-25T01:03:39;6.45;;;2.45;;
85668;SDS011;76101;44.794;10.344;2024-03-25T01:06:40;6.72;;;2.10;;
85668;SDS011;76101;44.794;10.344;2024-03-25T01:09:40;5.30;;;2.30;;
85668;SDS011;76101;44.794;10.344;2024-03-25T01:12:40;5.40;;;2.20;;
85668;SDS011;76101;44.794;10.344;2024-03-25T01:15:40;6.03;;;2.10;;
85668;SDS011;76101;44.794;10.344;2024-03-25T01:18:42;6.65;;;2.17;;
85668;SDS011;76101;44.794;10.344;2024-03-25T01:21:43;5.68;;;2.00;;
85668;SDS011;76101;44.794;10.344;2024-03-25T01:24:44;5.18;;;1.98;;
85668;SDS011;76101;44.794;10.344;2024-03-25T01:27:44;5.30;;;1.90;;
85668;SDS011;76101;44.794;10.344;2024-03-25T01:30:44;7.67;;;2.07;;
85668;SDS011;76101;44.794;10.344;2024-03-25T01:33:45;6.00;;;2.17;;
85668;SDS011;76101;44.794;10.344;2024-03-25T01:36:52;5.13;;;1.98;;
85668;SDS011;76101;44.794;10.344;2024-03-25T01:39:54;5.15;;;1.75;;
85668;SDS011;76101;44.794;10.344;2024-03-25T01:42:55;5.90;;;1.65;;
85668;SDS011;76101;44.794;10.344;2024-03-25T01:45:59;6.43;;;1.80;;
85668;SDS011;76101;44.794;10.344;2024-03-25T01:48:59;6.23;;;1.83;;
85668;SDS011;76101;44.794;10.344;2024-03-25T01:51:59;7.10;;;1.83;;
85668;SDS011;76101;44.794;10.344;2024-03-25T01:55:00;4.68;;;1.40;;
85668;SDS011;76101;44.794;10.344;2024-03-25T01:58:03;5.20;;;1.40;;
85668;SDS011;76101;44.794;10.344;2024-03-25T02:01:05;4.55;;;1.45;;
85668;SDS011;76101;44.794;10.344;2024-03-25T02:04:06;5.55;;;1.35;;
85668;SDS011;76101;44.794;10.344;2024-03-25T02:07:07;4.32;;;1.33;;
85668;SDS011;76101;44.794;10.344;2024-03-25T02:10:10;5.00;;;1.33;;
85668;SDS011;76101;44.794;10.344;2024-03-25T02:13:14;4.28;;;1.30;;
85668;SDS011;76101;44.794;10.344;2024-03-25T02:16:15;4.75;;;1.30;;
85668;SDS011;76101;44.794;10.344;2024-03-25T02:19:16;5.00;;;1.20;;
85668;SDS011;76101;44.794;10.344;2024-03-25T02:22:17;5.18;;;1.40;;
85668;SDS011;76101;44.794;10.344;2024-03-25T02:25:18;5.25;;;1.30;;
85668;SDS011;76101;44.794;10.344;2024-03-25T02:28:19;4.47;;;1.40;;
85668;SDS011;76101;44.794;10.344;2024-03-25T02:31:20;3.83;;;1.10;;
85668;SDS011;76101;44.794;10.344;2024-03-25T02:34:20;5.20;;;1.38;;
85668;SDS011;76101;44.794;10.344;2024-03-25T02:37:20;3.95;;;1.25;;
85668;SDS011;76101;44.794;10.344;2024-03-25T02:40:21;6.20;;;1.35;;
85668;SDS011;76101;44.794;10.344;2024-03-25T02:43:25;4.18;;;1.30;;
85668;SDS011;76101;44.794;10.344;2024-03-25T02:46:25;5.65;;;1.40;;
85668;SDS011;76101;44.794;10.344;2024-03-25T02:49:27;4.50;;;1.50;;
85668;SDS011;76101;44.794;10.344;2024-03-25T02:52:28;4.32;;;1.42;;
85668;SDS011;76101;44.794;10.344;2024-03-25T02:55:48;5.03;;;1.63;;
85668;SDS011;76101;44.794;10.344;2024-03-25T02:58:48;5.30;;;1.40;;
85668;SDS011;76101;44.794;10.344;2024-03-25T03:01:49;4.83;;;1.50;;
85668;SDS011;76101;44.794;10.344;2024-03-25T03:04:49;4.80;;;1.50;;
85668;SDS011;76101;44.794;10.344;2024-03-25T03:07:49;4.47;;;1.20;;
85668;SDS011;76101;44.794;10.344;2024-03-25T03:10:50;6.77;;;1.63;;
85668;SDS011;76101;44.794;10.344;2024-03-25T03:13:50;4.20;;;1.23;;
85668;SDS011;76101;44.794;10.344;2024-03-25T03:16:50;4.57;;;1.30;;
85668;SDS011;76101;44.794;10.344;2024-03-25T03:19:54;4.15;;;1.20;;
85668;SDS011;76101;44.794;10.344;2024-03-25T03:22:55;5.07;;;1.40;;
85668;SDS011;76101;44.794;10.344;2024-03-25T03:25:55;5.55;;;1.42;;
85668;SDS011;76101;44.794;10.344;2024-03-25T03:28:57;4.80;;;1.40;;
85668;SDS011;76101;44.794;10.344;2024-03-25T03:31:58;5.10;;;1.40;;
85668;SDS011;76101;44.794;10.344;2024-03-25T03:35:01;4.45;;;1.30;;
85668;SDS011;76101;44.794;10.344;2024-03-25T03:59:03;4.30;;;1.10;;
85668;SDS011;76101;44.794;10.344;2024-03-25T04:02:04;4.75;;;1.30;;
85668;SDS011;76101;44.794;10.344;2024-03-25T04:05:22;7.22;;;1.38;;
85668;SDS011;76101;44.794;10.344;2024-03-25T04:08:23;4.50;;;1.40;;
85668;SDS011;76101;44.794;10.344;2024-03-25T04:11:23;4.90;;;1.20;;
85668;SDS011;76101;44.794;10.344;2024-03-25T04:14:23;4.93;;;1.40;;
85668;SDS011;76101;44.794;10.344;2024-03-25T04:17:24;5.03;;;1.40;;
85668;SDS011;76101;44.794;10.344;2024-03-25T04:20:24;5.97;;;1.40;;
85668;SDS011;76101;44.794;10.344;2024-03-25T04:23:25;4.80;;;1.40;;
85668;SDS011;76101;44.794;10.344;2024-03-25T04:26:25;5.75;;;1.55;;
85668;SDS011;76101;44.794;10.344;2024-03-25T04:29:26;5.60;;;1.60;;
85668;SDS011;76101;44.794;10.344;2024-03-25T04:32:26;5.33;;;1.60;;
85668;SDS011;76101;44.794;10.344;2024-03-25T04:35:26;5.40;;;1.90;;
85668;SDS011;76101;44.794;10.344;2024-03-25T04:38:27;5.40;;;1.90;;
85668;SDS011;76101;44.794;10.344;2024-03-25T04:41:27;6.00;;;2.10;;
85668;SDS011;76101;44.794;10.344;2024-03-25T04:44:27;6.50;;;2.17;;
85668;SDS011;76101;44.794;10.344;2024-03-25T04:47:28;5.93;;;1.90;;
85668;SDS011;76101;44.794;10.344;2024-03-25T04:50:30;7.15;;;2.05;;
85668;SDS011;76101;44.794;10.344;2024-03-25T04:53:30;6.95;;;1.90;;
85668;SDS011;76101;44.794;10.344;2024-03-25T04:56:31;5.75;;;1.83;;
85668;SDS011;76101;44.794;10.344;2024-03-25T04:59:32;8.73;;;3.30;;
85668;SDS011;76101;44.794;10.344;2024-03-25T05:05:33;6.03;;;1.77;;
85668;SDS011;76101;44.794;10.344;2024-03-25T05:08:34;5.80;;;1.90;;
85668;SDS011;76101;44.794;10.344;2024-03-25T05:11:34;5.78;;;1.73;;
85668;SDS011;76101;44.794;10.344;2024-03-25T05:14:38;4.87;;;1.60;;
85668;SDS011;76101;44.794;10.344;2024-03-25T05:17:45;5.18;;;1.50;;
85668;SDS011;76101;44.794;10.344;2024-03-25T05:20:46;6.43;;;1.50;;
85668;SDS011;76101;44.794;10.344;2024-03-25T05:23:46;5.00;;;1.23;;
85668;SDS011;76101;44.794;10.344;2024-03-25T05:26:46;4.30;;;1.00;;
85668;SDS011;76101;44.794;10.344;2024-03-25T05:29:48;3.87;;;1.13;;
85668;SDS011;76101;44.794;10.344;2024-03-25T05:32:49;4.63;;;1.17;;
85668;SDS011;76101;44.794;10.344;2024-03-25T05:35:49;4.33;;;1.10;;
85668;SDS011;76101;44.794;10.344;2024-03-25T05:38:50;3.90;;;1.10;;
85668;SDS011;76101;44.794;10.344;2024-03-25T05:41:50;10.77;;;1.20;;
85668;SDS011;76101;44.794;10.344;2024-03-25T05:44:50;5.00;;;1.20;;
85668;SDS011;76101;44.794;10.344;2024-03-25T05:47:51;5.13;;;1.00;;
85668;SDS011;76101;44.794;10.344;2024-03-25T05:50:58;4.63;;;1.05;;
85668;SDS011;76101;44.794;10.344;2024-03-25T05:57:05;4.73;;;0.93;;
85668;SDS011;76101;44.794;10.344;2024-03-25T06:00:06;4.20;;;1.10;;
85668;SDS011;76101;44.794;10.344;2024-03-25T06:03:07;4.03;;;1.00;;
85668;SDS011;76101;44.794;10.344;2024-03-25T06:06:08;4.13;;;1.10;;
85668;SDS011;76101;44.794;10.344;2024-03-25T06:09:08;4.23;;;1.10;;
85668;SDS011;76101;44.794;10.344;2024-03-25T06:12:09;3.60;;;0.90;;
85668;SDS011;76101;44.794;10.344;2024-03-25T06:15:09;4.70;;;1.10;;
85668;SDS011;76101;44.794;10.344;2024-03-25T06:18:10;5.28;;;1.00;;
85668;SDS011;76101;44.794;10.344;2024-03-25T06:21:10;4.20;;;1.00;;
85668;SDS011;76101;44.794;10.344;2024-03-25T06:24:11;4.65;;;1.10;;
85668;SDS011;76101;44.794;10.344;2024-03-25T06:27:11;3.33;;;0.83;;
85668;SDS011;76101;44.794;10.344;2024-03-25T06:30:11;5.47;;;1.00;;
85668;SDS011;76101;44.794;10.344;2024-03-25T06:33:31;3.95;;;0.93;;
85668;SDS011;76101;44.794;10.344;2024-03-25T06:36:50;3.85;;;0.73;;
85668;SDS011;76101;44.794;10.344;2024-03-25T06:39:50;5.97;;;1.33;;
85668;SDS011;76101;44.794;10.344;2024-03-25T06:42:51;3.40;;;0.90;;
85668;SDS011;76101;44.794;10.344;2024-03-25T06:45:51;5.07;;;1.10;;
85668;SDS011;76101;44.794;10.344;2024-03-25T06:48:51;5.07;;;1.17;;
85668;SDS011;76101;44.794;10.344;2024-03-25T06:51:52;4.25;;;1.15;;
85668;SDS011;76101;44.794;10.344;2024-03-25T06:54:52;4.40;;;1.00;;
85668;SDS011;76101;44.794;10.344;2024-03-25T06:57:52;4.97;;;1.10;;
85668;SDS011;76101;44.794;10.344;2024-03-25T07:00:54;6.68;;;1.20;;
85668;SDS011;76101;44.794;10.344;2024-03-25T07:03:56;5.32;;;1.38;;
85668;SDS011;76101;44.794;10.344;2024-03-25T07:06:57;3.92;;;0.93;;
85668;SDS011;76101;44.794;10.344;2024-03-25T07:09:57;4.13;;;1.07;;
85668;SDS011;76101;44.794;10.344;2024-03-25T07:12:57;7.60;;;1.20;;
85668;SDS011;76101;44.794;10.344;2024-03-25T07:15:57;4.50;;;1.10;;
85668;SDS011;76101;44.794;10.344;2024-03-25T07:18:58;4.30;;;1.00;;
85668;SDS011;76101;44.794;10.344;2024-03-25T07:21:58;5.68;;;1.10;;
85668;SDS011;76101;44.794;10.344;2024-03-25T07:24:59;4.07;;;1.20;;
85668;SDS011;76101;44.794;10.344;2024-03-25T07:27:59;4.18;;;1.10;;
85668;SDS011;76101;44.794;10.344;2024-03-25T07:31:00;6.43;;;1.20;;
85668;SDS011;76101;44.794;10.344;2024-03-25T07:34:00;4.93;;;1.27;;
85668;SDS011;76101;44.794;10.344;2024-03-25T07:37:00;6.60;;;1.30;;
85668;SDS011;76101;44.794;10.344;2024-03-25T07:40:01;7.28;;;1.35;;
85668;SDS011;76101;44.794;10.344;2024-03-25T07:43:01;5.05;;;1.38;;
85668;SDS011;76101;44.794;10.344;2024-03-25T07:46:02;4.88;;;1.38;;
85668;SDS011;76101;44.794;10.344;2024-03-25T07:49:03;4.05;;;1.20;;
85668;SDS011;76101;44.794;10.344;2024-03-25T07:52:03;5.47;;;1.27;;
85668;SDS011;76101;44.794;10.344;2024-03-25T07:55:04;4.07;;;1.20;;
85668;SDS011;76101;44.794;10.344;2024-03-25T07:58:04;4.10;;;1.13;;
85668;SDS011;76101;44.794;10.344;2024-03-25T08:01:04;4.83;;;1.30;;
85668;SDS011;76101;44.794;10.344;2024-03-25T08:04:05;4.68;;;1.20;;
85668;SDS011;76101;44.794;10.344;2024-03-25T08:07:06;4.32;;;1.33;;
85668;SDS011;76101;44.794;10.344;2024-03-25T08:10:06;4.75;;;1.15;;
85668;SDS011;76101;44.794;10.344;2024-03-25T08:13:07;4.20;;;1.20;;
85668;SDS011;76101;44.794;10.344;2024-03-25T08:16:07;4.53;;;1.00;;
85668;SDS011;76101;44.794;10.344;2024-03-25T08:19:07;4.25;;;1.20;;
85668;SDS011;76101;44.794;10.344;2024-03-25T08:22:08;5.77;;;1.10;;
85668;SDS011;76101;44.794;10.344;2024-03-25T08:25:08;4.25;;;1.23;;
85668;SDS011;76101;44.794;10.344;2024-03-25T08:28:08;3.67;;;1.10;;
85668;SDS011;76101;44.794;10.344;2024-03-25T08:31:09;5.70;;;1.13;;
85668;SDS011;76101;44.794;10.344;2024-03-25T08:34:09;3.95;;;1.20;;
85668;SDS011;76101;44.794;10.344;2024-03-25T08:37:10;4.63;;;1.10;;
85668;SDS011;76101;44.794;10.344;2024-03-25T08:40:10;4.10;;;1.17;;
85668;SDS011;76101;44.794;10.344;2024-03-25T08:43:10;5.60;;;1.45;;
85668;SDS011;76101;44.794;10.344;2024-03-25T08:46:11;7.10;;;2.63;;
85668;SDS011;76101;44.794;10.344;2024-03-25T08:49:11;4.33;;;1.20;;
85668;SDS011;76101;44.794;10.344;2024-03-25T08:52:11;4.55;;;1.30;;
85668;SDS011;76101;44.794;10.344;2024-03-25T08:55:12;5.35;;;1.20;;
85668;SDS011;76101;44.794;10.344;2024-03-25T08:58:15;4.72;;;1.20;;
85668;SDS011;76101;44.794;10.344;2024-03-25T09:01:16;3.97;;;1.00;;
85668;SDS011;76101;44.794;10.344;2024-03-25T09:04:16;5.50;;;1.40;;
85668;SDS011;76101;44.794;10.344;2024-03-25T09:07:17;4.47;;;1.30;;
85668;SDS011;76101;44.794;10.344;2024-03-25T09:10:17;5.33;;;1.67;;
85668;SDS011;76101;44.794;10.344;2024-03-25T09:13:36;5.68;;;1.70;;
85668;SDS011;76101;44.794;10.344;2024-03-25T09:16:37;5.47;;;1.73;;
85668;SDS011;76101;44.794;10.344;2024-03-25T09:19:37;5.60;;;1.40;;
85668;SDS011;76101;44.794;10.344;2024-03-25T09:22:37;6.13;;;1.50;;
85668;SDS011;76101;44.794;10.344;2024-03-25T09:25:38;4.50;;;1.50;;
85668;SDS011;76101;44.794;10.344;2024-03-25T09:28:38;5.73;;;2.00;;
85668;SDS011;76101;44.794;10.344;2024-03-25T09:31:39;7.30;;;2.20;;
85668;SDS011;76101;44.794;10.344;2024-03-25T09:34:39;6.35;;;2.53;;
85668;SDS011;76101;44.794;10.344;2024-03-25T09:37:40;5.30;;;2.03;;
85668;SDS011;76101;44.794;10.344;2024-03-25T09:40:40;9.23;;;2.10;;
85668;SDS011;76101;44.794;10.344;2024-03-25T09:43:45;6.90;;;2.85;;
85668;SDS011;76101;44.794;10.344;2024-03-25T09:46:50;6.22;;;2.05;;
85668;SDS011;76101;44.794;10.344;2024-03-25T09:49:51;7.07;;;2.28;;
85668;SDS011;76101;44.794;10.344;2024-03-25T09:52:54;7.90;;;2.53;;
85668;SDS011;76101;44.794;10.344;2024-03-25T09:55:56;7.47;;;2.38;;
85668;SDS011;76101;44.794;10.344;2024-03-25T09:58:57;6.70;;;2.80;;
85668;SDS011;76101;44.794;10.344;2024-03-25T10:01:58;6.35;;;2.60;;
85668;SDS011;76101;44.794;10.344;2024-03-25T10:05:00;6.32;;;2.70;;
85668;SDS011;76101;44.794;10.344;2024-03-25T10:08:02;9.63;;;3.10;;
85668;SDS011;76101;44.794;10.344;2024-03-25T10:11:03;7.03;;;3.15;;
85668;SDS011;76101;44.794;10.344;2024-03-25T10:14:03;7.87;;;3.53;;
85668;SDS011;76101;44.794;10.344;2024-03-25T10:17:05;7.40;;;3.42;;
85668;SDS011;76101;44.794;10.344;2024-03-25T10:20:06;8.30;;;4.28;;
85668;SDS011;76101;44.794;10.344;2024-03-25T10:23:09;8.50;;;4.10;;
85668;SDS011;76101;44.794;10.344;2024-03-25T10:26:23;8.45;;;3.80;;
85668;SDS011;76101;44.794;10.344;2024-03-25T10:29:31;9.10;;;3.60;;
85668;SDS011;76101;44.794;10.344;2024-03-25T10:32:32;7.17;;;2.93;;
85668;SDS011;76101;44.794;10.344;2024-03-25T10:35:33;7.33;;;3.37;;
85668;SDS011;76101;44.794;10.344;2024-03-25T10:38:34;9.43;;;3.80;;
85668;SDS011;76101;44.794;10.344;2024-03-25T10:41:35;9.38;;;3.35;;
85668;SDS011;76101;44.794;10.344;2024-03-25T10:44:37;10.35;;;4.03;;
85668;SDS011;76101;44.794;10.344;2024-03-25T10:47:39;7.65;;;3.60;;
85668;SDS011;76101;44.794;10.344;2024-03-25T10:50:40;8.68;;;3.90;;
85668;SDS011;76101;44.794;10.344;2024-03-25T10:53:45;10.65;;;3.58;;
85668;SDS011;76101;44.794;10.344;2024-03-25T10:56:47;9.23;;;3.60;;
85668;SDS011;76101;44.794;10.344;2024-03-25T10:59:51;11.15;;;3.75;;
85668;SDS011;76101;44.794;10.344;2024-03-25T11:02:53;8.23;;;3.78;;
85668;SDS011;76101;44.794;10.344;2024-03-25T11:05:54;9.05;;;3.53;;
85668;SDS011;76101;44.794;10.344;2024-03-25T11:08:58;7.75;;;3.58;;
85668;SDS011;76101;44.794;10.344;2024-03-25T11:11:59;9.23;;;3.13;;
85668;SDS011;76101;44.794;10.344;2024-03-25T11:15:01;9.20;;;3.55;;
85668;SDS011;76101;44.794;10.344;2024-03-25T11:18:03;7.95;;;3.30;;
85668;SDS011;76101;44.794;10.344;2024-03-25T11:21:06;7.15;;;3.25;;
85668;SDS011;76101;44.794;10.344;2024-03-25T11:24:12;6.60;;;2.65;;
85668;SDS011;76101;44.794;10.344;2024-03-25T11:27:12;8.38;;;3.38;;
85668;SDS011;76101;44.794;10.344;2024-03-25T11:33:15;8.63;;;3.72;;
85668;SDS011;76101;44.794;10.344;2024-03-25T11:36:16;6.67;;;3.20;;
85668;SDS011;76101;44.794;10.344;2024-03-25T11:39:18;7.65;;;3.08;;
85668;SDS011;76101;44.794;10.344;2024-03-25T11:42:18;8.03;;;3.20;;
85668;SDS011;76101;44.794;10.344;2024-03-25T11:45:21;10.05;;;2.83;;
85668;SDS011;76101;44.794;10.344;2024-03-25T11:48:23;7.43;;;2.78;;
85668;SDS011;76101;44.794;10.344;2024-03-25T11:51:23;7.40;;;2.75;;
85668;SDS011;76101;44.794;10.344;2024-03-25T11:54:26;8.32;;;2.80;;
85668;SDS011;76101;44.794;10.344;2024-03-25T11:57:28;6.45;;;2.58;;
85668;SDS011;76101;44.794;10.344;2024-03-25T12:00:28;6.43;;;2.65;;
85668;SDS011;76101;44.794;10.344;2024-03-25T12:03:29;6.95;;;2.92;;
85668;SDS011;76101;44.794;10.344;2024-03-25T12:06:29;7.85;;;3.50;;
85668;SDS011;76101;44.794;10.344;2024-03-25T12:09:29;7.13;;;3.30;;
85668;SDS011;76101;44.794;10.344;2024-03-25T12:12:49;7.60;;;2.47;;
85668;SDS011;76101;44.794;10.344;2024-03-25T12:15:50;6.18;;;2.58;;
85668;SDS011;76101;44.794;10.344;2024-03-25T12:18:51;6.75;;;2.50;;
85668;SDS011;76101;44.794;10.344;2024-03-25T12:22:01;6.60;;;2.38;;
85668;SDS011;76101;44.794;10.344;2024-03-25T12:25:01;7.65;;;3.00;;
85668;SDS011;76101;44.794;10.344;2024-03-25T12:31:09;7.53;;;2.92;;
85668;SDS011;76101;44.794;10.344;2024-03-25T12:34:14;5.90;;;2.60;;
85668;SDS011;76101;44.794;10.344;2024-03-25T12:37:16;7.97;;;2.90;;
85668;SDS011;76101;44.794;10.344;2024-03-25T12:40:27;7.43;;;2.90;;
85668;SDS011;76101;44.794;10.344;2024-03-25T12:43:28;6.75;;;2.80;;
85668;SDS011;76101;44.794;10.344;2024-03-25T12:46:28;7.68;;;2.65;;
85668;SDS011;76101;44.794;10.344;2024-03-25T12:49:29;6.90;;;2.45;;
85668;SDS011;76101;44.794;10.344;2024-03-25T12:52:29;7.77;;;2.33;;
85668;SDS011;76101;44.794;10.344;2024-03-25T12:55:30;6.70;;;2.53;;
85668;SDS011;76101;44.794;10.344;2024-03-25T12:58:30;7.07;;;2.70;;
85668;SDS011;76101;44.794;10.344;2024-03-25T13:01:31;7.90;;;2.80;;
85668;SDS011;76101;44.794;10.344;2024-03-25T13:04:31;5.90;;;2.50;;
85668;SDS011;76101;44.794;10.344;2024-03-25T13:07:31;6.10;;;2.60;;
85668;SDS011;76101;44.794;10.344;2024-03-25T13:10:32;10.27;;;2.83;;
85668;SDS011;76101;44.794;10.344;2024-03-25T13:13:32;7.70;;;2.92;;
85668;SDS011;76101;44.794;10.344;2024-03-25T13:16:32;7.63;;;3.20;;
85668;SDS011;76101;44.794;10.344;2024-03-25T13:19:33;7.65;;;3.20;;
85668;SDS011;76101;44.794;10.344;2024-03-25T13:22:33;6.57;;;3.07;;
85668;SDS011;76101;44.794;10.344;2024-03-25T13:25:34;5.85;;;3.05;;
85668;SDS011;76101;44.794;10.344;2024-03-25T13:28:34;6.47;;;3.10;;
85668;SDS011;76101;44.794;10.344;2024-03-25T13:31:35;5.70;;;2.87;;
85668;SDS011;76101;44.794;10.344;2024-03-25T13:34:35;6.90;;;3.33;;
85668;SDS011;76101;44.794;10.344;2024-03-25T13:37:35;7.65;;;3.13;;
85668;SDS011;76101;44.794;10.344;2024-03-25T13:40:36;7.27;;;3.20;;
85668;SDS011;76101;44.794;10.344;2024-03-25T13:43:38;7.83;;;3.33;;
85668;SDS011;76101;44.794;10.344;2024-03-25T13:46:42;7.10;;;3.33;;
85668;SDS011;76101;44.794;10.344;2024-03-25T13:49:43;7.60;;;2.97;;
85668;SDS011;76101;44.794;10.344;2024-03-25T13:52:43;7.73;;;3.37;;
85668;SDS011;76101;44.794;10.344;2024-03-25T13:55:43;7.13;;;3.40;;
85668;SDS011;76101;44.794;10.344;2024-03-25T13:58:44;7.90;;;3.30;;
85668;SDS011;76101;44.794;10.344;2024-03-25T14:01:44;6.23;;;3.10;;
85668;SDS011;76101;44.794;10.344;2024-03-25T14:04:45;7.90;;;3.30;;
85668;SDS011;76101;44.794;10.344;2024-03-25T14:07:45;8.45;;;3.28;;
85668;SDS011;76101;44.794;10.344;2024-03-25T14:10:56;10.40;;;3.67;;
85668;SDS011;76101;44.794;10.344;2024-03-25T14:13:58;9.65;;;3.75;;
85668;SDS011;76101;44.794;10.344;2024-03-25T14:16:58;7.18;;;3.22;;
85668;SDS011;76101;44.794;10.344;2024-03-25T14:19:59;6.55;;;2.90;;
85668;SDS011;76101;44.794;10.344;2024-03-25T14:22:59;7.90;;;3.58;;
85668;SDS011;76101;44.794;10.344;2024-03-25T14:26:01;9.20;;;3.60;;
85668;SDS011;76101;44.794;10.344;2024-03-25T14:29:02;7.05;;;3.03;;
85668;SDS011;76101;44.794;10.344;2024-03-25T14:32:02;7.20;;;3.33;;
85668;SDS011;76101;44.794;10.344;2024-03-25T14:35:04;8.07;;;2.90;;
85668;SDS011;76101;44.794;10.344;2024-03-25T14:38:06;6.22;;;2.75;;
85668;SDS011;76101;44.794;10.344;2024-03-25T14:41:07;6.78;;;2.95;;
85668;SDS011;76101;44.794;10.344;2024-03-25T14:44:11;6.22;;;2.90;;
85668;SDS011;76101;44.794;10.344;2024-03-25T14:47:11;7.60;;;2.92;;
85668;SDS011;76101;44.794;10.344;2024-03-25T14:50:12;7.07;;;3.20;;
85668;SDS011;76101;44.794;10.344;2024-03-25T14:53:12;8.35;;;3.38;;
85668;SDS011;76101;44.794;10.344;2024-03-25T14:56:13;6.72;;;3.10;;
85668;SDS011;76101;44.794;10.344;2024-03-25T14:59:13;8.77;;;3.30;;
85668;SDS011;76101;44.794;10.344;2024-03-25T15:02:14;6.32;;;3.17;;
85668;SDS011;76101;44.794;10.344;2024-03-25T15:05:14;8.25;;;3.10;;
85668;SDS011;76101;44.794;10.344;2024-03-25T15:08:14;10.05;;;2.90;;
85668;SDS011;76101;44.794;10.344;2024-03-25T15:11:15;8.48;;;3.30;;
85668;SDS011;76101;44.794;10.344;2024-03-25T15:14:15;6.05;;;2.75;;
85668;SDS011;76101;44.794;10.344;2024-03-25T15:17:15;6.53;;;2.60;;
85668;SDS011;76101;44.794;10.344;2024-03-25T15:20:16;7.07;;;2.85;;
85668;SDS011;76101;44.794;10.344;2024-03-25T15:23:16;7.38;;;2.97;;
85668;SDS011;76101;44.794;10.344;2024-03-25T15:26:17;7.72;;;2.60;;
85668;SDS011;76101;44.794;10.344;2024-03-25T15:29:17;7.47;;;2.35;;
85668;SDS011;76101;44.794;10.344;2024-03-25T15:32:18;5.97;;;2.40;;
85668;SDS011;76101;44.794;10.344;2024-03-25T15:35:18;7.60;;;2.70;;
85668;SDS011;76101;44.794;10.344;2024-03-25T15:38:18;6.88;;;2.88;;
85668;SDS011;76101;44.794;10.344;2024-03-25T15:41:19;6.80;;;2.92;;
85668;SDS011;76101;44.794;10.344;2024-03-25T15:44:19;6.22;;;2.80;;
85668;SDS011;76101;44.794;10.344;2024-03-25T15:47:20;7.63;;;3.30;;
85668;SDS011;76101;44.794;10.344;2024-03-25T15:50:20;7.57;;;3.00;;
85668;SDS011;76101;44.794;10.344;2024-03-25T15:53:22;7.95;;;2.80;;
85668;SDS011;76101;44.794;10.344;2024-03-25T15:56:22;6.20;;;2.85;;
85668;SDS011;76101;44.794;10.344;2024-03-25T15:59:23;7.25;;;3.08;;
85668;SDS011;76101;44.794;10.344;2024-03-25T16:02:23;7.30;;;3.17;;
85668;SDS011;76101;44.794;10.344;2024-03-25T16:05:25;7.28;;;3.20;;
85668;SDS011;76101;44.794;10.344;2024-03-25T16:08:25;8.05;;;3.05;;
85668;SDS011;76101;44.794;10.344;2024-03-25T16:11:26;8.18;;;3.40;;
85668;SDS011;76101;44.794;10.344;2024-03-25T16:14:32;7.90;;;3.72;;
85668;SDS011;76101;44.794;10.344;2024-03-25T16:17:36;7.40;;;3.45;;
85668;SDS011;76101;44.794;10.344;2024-03-25T16:20:36;8.93;;;3.80;;
85668;SDS011;76101;44.794;10.344;2024-03-25T16:23:36;8.95;;;3.67;;
85668;SDS011;76101;44.794;10.344;2024-03-25T16:26:37;7.97;;;3.90;;
85668;SDS011;76101;44.794;10.344;2024-03-25T16:29:37;9.60;;;3.88;;
85668;SDS011;76101;44.794;10.344;2024-03-25T16:32:38;8.02;;;3.50;;
85668;SDS011;76101;44.794;10.344;2024-03-25T16:35:38;9.30;;;4.15;;
85668;SDS011;76101;44.794;10.344;2024-03-25T16:38:42;8.77;;;3.75;;
85668;SDS011;76101;44.794;10.344;2024-03-25T16:42:20;10.25;;;3.60;;
85668;SDS011;76101;44.794;10.344;2024-03-25T16:45:21;8.70;;;4.00;;
85668;SDS011;76101;44.794;10.344;2024-03-25T16:48:21;10.15;;;3.78;;
85668;SDS011;76101;44.794;10.344;2024-03-25T16:51:22;8.77;;;4.40;;
85668;SDS011;76101;44.794;10.344;2024-03-25T16:54:22;13.07;;;4.05;;
85668;SDS011;76101;44.794;10.344;2024-03-25T16:57:23;12.52;;;4.53;;
85668;SDS011;76101;44.794;10.344;2024-03-25T17:00:24;11.38;;;4.15;;
85668;SDS011;76101;44.794;10.344;2024-03-25T17:03:25;7.68;;;3.90;;
85668;SDS011;76101;44.794;10.344;2024-03-25T17:06:26;8.35;;;4.07;;
85668;SDS011;76101;44.794;10.344;2024-03-25T17:09:26;10.60;;;4.50;;
85668;SDS011;76101;44.794;10.344;2024-03-25T17:12:27;8.38;;;4.15;;
85668;SDS011;76101;44.794;10.344;2024-03-25T17:15:27;8.65;;;3.95;;
85668;SDS011;76101;44.794;10.344;2024-03-25T17:18:28;10.07;;;4.38;;
85668;SDS011;76101;44.794;10.344;2024-03-25T17:21:28;8.25;;;4.28;;
85668;SDS011;76101;44.794;10.344;2024-03-25T17:24:29;9.95;;;3.97;;
85668;SDS011;76101;44.794;10.344;2024-03-25T17:27:29;9.65;;;4.50;;
85668;SDS011;76101;44.794;10.344;2024-03-25T17:30:30;8.95;;;4.93;;
85668;SDS011;76101;44.794;10.344;2024-03-25T17:33:30;12.02;;;4.80;;
85668;SDS011;76101;44.794;10.344;2024-03-25T17:36:33;12.63;;;4.68;;
85668;SDS011;76101;44.794;10.344;2024-03-25T17:39:34;9.23;;;4.68;;
85668;SDS011;76101;44.794;10.344;2024-03-25T17:42:35;9.45;;;4.47;;
85668;SDS011;76101;44.794;10.344;2024-03-25T17:45:36;8.48;;;4.00;;
85668;SDS011;76101;44.794;10.344;2024-03-25T17:48:40;9.00;;;4.80;;
85668;SDS011;76101;44.794;10.344;2024-03-25T17:51:40;12.23;;;4.80;;
85668;SDS011;76101;44.794;10.344;2024-03-25T17:54:41;9.23;;;4.68;;
85668;SDS011;76101;44.794;10.344;2024-03-25T17:57:41;11.60;;;5.40;;
85668;SDS011;76101;44.794;10.344;2024-03-25T18:00:42;10.50;;;5.00;;
85668;SDS011;76101;44.794;10.344;2024-03-25T18:03:42;11.43;;;5.05;;
85668;SDS011;76101;44.794;10.344;2024-03-25T18:06:42;11.93;;;4.90;;
85668;SDS011;76101;44.794;10.344;2024-03-25T18:09:43;9.68;;;5.10;;
85668;SDS011;76101;44.794;10.344;2024-03-25T18:12:43;11.55;;;5.25;;
85668;SDS011;76101;44.794;10.344;2024-03-25T18:15:47;8.80;;;5.00;;
85668;SDS011;76101;44.794;10.344;2024-03-25T18:18:49;12.43;;;5.30;;
85668;SDS011;76101;44.794;10.344;2024-03-25T18:21:50;10.85;;;5.00;;
85668;SDS011;76101;44.794;10.344;2024-03-25T18:24:50;10.32;;;5.20;;
85668;SDS011;76101;44.794;10.344;2024-03-25T18:27:50;11.00;;;5.45;;
85668;SDS011;76101;44.794;10.344;2024-03-25T18:30:54;11.32;;;4.55;;
85668;SDS011;76101;44.794;10.344;2024-03-25T18:33:57;10.73;;;4.65;;